D/T METAR WX W/DIR W/SPE G/SPE TEMP DEWP
19/03/19 20:50 EGYM 192050Z 20005KT 9999 FEW040 BKN058 09/08 Q1028 BLU SSW (200°) 5.8mph 9°C 8°C
19/03/19 19:50 EGYM 191950Z 19005KT CAVOK 09/07 Q1027 BLU S (190°) 5.8mph 9°C 7°C
19/03/19 18:50 EGYM 191850Z 22006KT CAVOK 09/07 Q1027 BLU SW (220°) 6.9mph 9°C 7°C
19/03/19 17:50 EGYM 191750Z 22006KT 9999 FEW027 SCT038 BKN050 11/07 Q1027 BLU NOSIG SW (220°) 6.9mph 11°C 7°C
19/03/19 16:50 EGYM 191650Z 22008KT 9999 FEW027 BKN048 12/08 Q1026 BLU NOSIG SW (220°) 9.2mph 12°C 8°C
19/03/19 15:50 EGYM 191550Z 23009KT 9999 FEW027 BKN050 12/07 Q1026 BLU NOSIG SW (230°) 10.4mph 12°C 7°C
19/03/19 14:50 EGYM 191450Z 21009KT 9999 FEW026 BKN045 12/07 Q1026 BLU NOSIG SSW (210°) 10.4mph 12°C 7°C
19/03/19 13:50 EGYM 191350Z 23009KT 9999 FEW026 SCT035 BKN050 12/07 Q1026 BLU NOSIG SW (230°) 10.4mph 12°C 7°C
19/03/19 12:50 EGYM 191250Z 22008KT 9999 FEW025 SCT035 BKN050 12/07 Q1026 BLU NOSIG SW (220°) 9.2mph 12°C 7°C
19/03/19 11:50 EGYM 191150Z 26006KT 9999 FEW023 SCT030 BKN050 12/06 Q1026 BLU NOSIG W (260°) 6.9mph 12°C 6°C
19/03/19 10:50 EGYM 191050Z 23006KT 9999 FEW020 SCT025 12/07 Q1026 BLU TEMPO SCT020 WHT SW (230°) 6.9mph 12°C 7°C
19/03/19 10:08 EGYM 191008Z 23004KT 9999 FEW012 11/07 Q1026 BLU NOSIG SW (230°) 4.6mph 11°C 7°C
19/03/19 08:50 EGYM 190850Z 22006KT 7000 BR SCT012 BKN020 08/08 Q1026 GRN BECMG 9999 NSW SCT020 WHT BR SW (220°) 6.9mph 8°C 8°C
19/03/19 07:50 EGYM 190750Z 22005KT 4000 BR BKN010 BKN014 07/07 Q1025 GRN BECMG 9999 NSW SCT020 WHT BR SW (220°) 5.8mph 7°C 7°C
19/03/19 06:50 EGYM 190650Z 19005KT 2500 BR BKN004 BKN012 06/05 Q1025 YLO2 BR S (190°) 5.8mph 6°C 5°C
19/03/19 05:50 EGYM 190550Z 15003KT 4000 BR SCT018 SCT045 05/04 Q1024 GRN BR SSE (150°) 3.5mph 5°C 4°C
19/03/19 04:50 EGYM 190450Z 18004KT 4000 BR FEW020 BKN045 04/04 Q1024 GRN BR S (180°) 4.6mph 4°C 4°C
19/03/19 03:50 EGYM 190350Z 16003KT 4000 BR FEW025 SCT035 BKN050 04/03 Q1024 GRN BR SSE (160°) 3.5mph 4°C 3°C
19/03/19 02:50 EGYM 190250Z 19003KT 5000 BR BKN035 04/04 Q1024 REDZ WHT BR S (190°) 3.5mph 4°C 4°C
19/03/19 01:50 EGYM 190150Z 15003KT 8000 HZ OVC050 05/04 Q1024 REDZ BLU HZ SSE (150°) 3.5mph 5°C 4°C
19/03/19 00:50 EGYM 190050Z 20003KT CAVOK 04/03 Q1024 BLU SSW (200°) 3.5mph 4°C 3°C
18/03/19 23:50 EGYM 182350Z 17003KT CAVOK 05/03 Q1023 BLU S (170°) 3.5mph 5°C 3°C
18/03/19 22:50 EGYM 182250Z 17003KT CAVOK 05/05 Q1023 BLU S (170°) 3.5mph 5°C 5°C
18/03/19 21:50 EGYM 182150Z 14004KT CAVOK 05/05 Q1023 BLU SE (140°) 4.6mph 5°C 5°C
18/03/19 20:50 EGYM 182050Z 13002KT CAVOK 04/03 Q1023 BLU SE (130°) 2.3mph 4°C 3°C
18/03/19 19:50 EGYM 181950Z 05002KT CAVOK 05/04 Q1022 BLU NE (50°) 2.3mph 5°C 4°C
18/03/19 18:50 EGYM 181850Z 14002KT CAVOK 06/04 Q1022 BLU SE (140°) 2.3mph 6°C 4°C
18/03/19 17:50 EGYM 181750Z 15002KT 9999 FEW028 SCT045 07/05 Q1021 BLU NOSIG SSE (150°) 2.3mph 7°C 5°C
18/03/19 16:50 EGYM 181650Z 12003KT 9999 VCSH SCT028CB SCT030TCU 08/05 Q1020 RESHRA BLU NOSIG VCSH ESE (120°) 3.5mph 8°C 5°C
18/03/19 15:50 EGYM 181550Z 27007KT 9999 -SHRA SCT028CB SCT030TCU 10/03 Q1020 BLU NOSIG -SHRA W (270°) 8.1mph 10°C 3°C
18/03/19 14:50 EGYM 181450Z 26009KT 9999 VCSH SCT025CB FEW026TCU SCT030 08/03 Q1020 RESHRA BLU NOSIG VCSH W (260°) 10.4mph 8°C 3°C
18/03/19 13:50 EGYM 181350Z 28011KT 9999 VCSH SCT025TCU SCT030 10/03 Q1020 BLU TEMPO 7000 -SHRA SCT020 WHT VCSH W (280°) 12.7mph 10°C 3°C
18/03/19 12:50 EGYM 181250Z 31009KT 9999 SCT028TCU SCT030 10/04 Q1019 BLU NOSIG NW (310°) 10.4mph 10°C 4°C
18/03/19 11:50 EGYM 181150Z 29012KT 9999 FEW025TCU SCT030 10/03 Q1019 BLU TEMPO SCT022 WHT WNW (290°) 13.8mph 10°C 3°C
18/03/19 10:50 EGYM 181050Z 28009KT 9999 FEW025 SCT035 08/04 Q1019 BLU NOSIG W (280°) 10.4mph 8°C 4°C
18/03/19 09:50 EGYM 180950Z 31009KT 9999 FEW030 SCT040 BKN180 07/03 Q1019 BLU NOSIG NW (310°) 10.4mph 7°C 3°C
18/03/19 08:50 EGYM 180850Z 30008KT CAVOK 06/03 Q1018 BLU NOSIG WNW (300°) 9.2mph 6°C 3°C
18/03/19 07:50 EGYM 180750Z 29006KT CAVOK 05/02 Q1018 BLU NOSIG WNW (290°) 6.9mph 5°C 2°C
18/03/19 06:50 EGYM 180650Z 27007KT 9999 FEW036 BKN170 04/02 Q1017 BLU NOSIG W (270°) 8.1mph 4°C 2°C
18/03/19 05:50 EGYM 180550Z 28007KT 9999 FEW035 BKN180 03/02 Q1016 BLU W (280°) 8.1mph 3°C 2°C
18/03/19 04:50 EGYM 180450Z 28008KT CAVOK 03/02 Q1016 BLU W (280°) 9.2mph 3°C 2°C
18/03/19 03:50 EGYM 180350Z 29006KT CAVOK 04/02 Q1015 BLU WNW (290°) 6.9mph 4°C 2°C
18/03/19 02:50 EGYM 180250Z 29010KT CAVOK 05/03 Q1014 BLU WNW (290°) 11.5mph 5°C 3°C
18/03/19 01:50 EGYM 180150Z 28008KT 9999 SCT040 03/02 Q1014 BLU W (280°) 9.2mph 3°C 2°C
18/03/19 00:50 EGYM 180050Z 25005KT 9999 SCT040 01/00 Q1013 BLU WSW (250°) 5.8mph 1°C 0°C
17/03/19 23:50 EGYM 172350Z 28008KT 9999 BKN040 04/02 Q1012 BLU W (280°) 9.2mph 4°C 2°C
17/03/19 22:50 EGYM 172250Z 27007KT 9999 FEW020 BKN040 04/02 Q1012 BLU W (270°) 8.1mph 4°C 2°C
17/03/19 21:50 EGYM 172150Z 29009KT 9999 BKN040 04/02 Q1010 BLU WNW (290°) 10.4mph 4°C 2°C
17/03/19 20:50 EGYM 172050Z 27009KT 9999 BKN040 05/02 Q1009 BLU W (270°) 10.4mph 5°C 2°C
17/03/19 19:50 EGYM 171950Z 26011KT 9999 BKN040 06/02 Q1008 BLU W (260°) 12.7mph 6°C 2°C
17/03/19 18:50 EGYM 171850Z AUTO 27014KT 9999 FEW039/// SCT048/// 06/01 Q1007 W (270°) 16.1mph 6°C 1°C
17/03/19 17:50 EGYM 171750Z AUTO 26011KT 9999 BKN050/// 07/01 Q1006 W (260°) 12.7mph 7°C 1°C
17/03/19 16:50 EGYM 171650Z AUTO 26015KT 9999 NCD 08/02 Q1005 RERA W (260°) 17.3mph 8°C 2°C
17/03/19 15:50 EGYM 171550Z AUTO 27018KT 9999 -RA BKN046/// 07/01 Q1005 -RA W (270°) 20.7mph 7°C 1°C
17/03/19 14:50 EGYM 171450Z AUTO 28015KT 9999 FEW050/// 09/M01 Q1004 RERA W (280°) 17.3mph 9°C -1°C
17/03/19 13:50 EGYM 171350Z AUTO 27017KT 9999 BKN046/// 09/01 Q1003 RERA W (270°) 19.6mph 9°C 1°C
17/03/19 12:50 EGYM 171250Z AUTO 27020KT 9999 FEW039/// BKN050/// 07/M00 Q1003 RERA W (270°) 23.0mph 7°C 0°C
17/03/19 11:50 EGYM 171150Z AUTO 26017KT 9999 FEW041/// BKN050/// 07/00 Q1003 W (260°) 19.6mph 7°C 0°C
17/03/19 10:50 EGYM 171050Z AUTO 27019KT 9999 BKN031/// 07/00 Q1002 W (270°) 21.9mph 7°C 0°C
17/03/19 09:50 EGYM 170950Z AUTO 27017KT 9999 BKN027/// 06/01 Q1001 W (270°) 19.6mph 6°C 1°C
17/03/19 08:50 EGYM 170850Z AUTO 26019KT 9999 FEW024/// 06/02 Q1000 W (260°) 21.9mph 6°C 2°C
17/03/19 07:50 EGYM 170750Z AUTO 24011KT 9999 NCD 05/02 Q1000 WSW (240°) 12.7mph 5°C 2°C
17/03/19 06:50 EGYM 170650Z AUTO 26014KT 9999 NCD 03/01 Q0999 W (260°) 16.1mph 3°C 1°C
17/03/19 05:50 EGYM 170550Z AUTO 26012KT 9999 FEW050/// SCT100/// 04/02 Q0998 RERA W (260°) 13.8mph 4°C 2°C
17/03/19 04:50 EGYM 170450Z AUTO 27013KT 9999 BKN050/// SCT110/// 04/02 Q0997 RERA W (270°) 15.0mph 4°C 2°C
17/03/19 03:50 EGYM 170350Z AUTO 26015KT 9999 FEW050/// SCT130/// 05/03 Q0995 W (260°) 17.3mph 5°C 3°C
17/03/19 02:50 EGYM 170250Z AUTO 25013KT 9999 FEW025/// BKN060/// 06/04 Q0995 WSW (250°) 15.0mph 6°C 4°C
17/03/19 01:50 EGYM 170150Z AUTO 24009KT 9999 FEW035/// BKN080/// 05/04 Q0994 WSW (240°) 10.4mph 5°C 4°C
17/03/19 00:50 EGYM 170050Z AUTO 25010KT 9999 SCT100/// 05/03 Q0994 WSW (250°) 11.5mph 5°C 3°C
16/03/19 23:50 EGYM 162350Z AUTO 26011KT 9999 BKN080/// 06/04 Q0993 RERA W (260°) 12.7mph 6°C 4°C
16/03/19 22:50 EGYM 162250Z AUTO 27012KT 9999 -RA FEW033/// BKN039/// 06/04 Q0993 -RA W (270°) 13.8mph 6°C 4°C
16/03/19 21:50 EGYM 162150Z AUTO 28022G32KT 5000 RA FEW009/// SCT022/// 07/05 Q0993 RA W (280°) 25.3mph 36.8mph 7°C 5°C
16/03/19 20:50 EGYM 162050Z AUTO 21022KT 9999 -RA SCT013/// BKN035/// 10/08 Q0991 -RA SSW (210°) 25.3mph 10°C 8°C
16/03/19 19:50 EGYM 161950Z AUTO 21022KT 9999 BKN018/// SCT038/// 10/08 Q0991 RERA SSW (210°) 25.3mph 10°C 8°C
16/03/19 18:50 EGYM 161850Z AUTO 21022KT 9999 -RADZ BKN017/// BKN028/// 10/08 Q0992 -RA -DZ SSW (210°) 25.3mph 10°C 8°C
16/03/19 17:50 EGYM 161750Z AUTO 22023KT 9999 OVC022/// 11/07 Q0993 SW (220°) 26.5mph 11°C 7°C
16/03/19 16:50 EGYM 161650Z AUTO 22026G36KT 9999 BKN025/// BKN033/// 12/07 Q0993 SW (220°) 29.9mph 41.4mph 12°C 7°C
16/03/19 15:50 EGYM 161550Z AUTO 22023G34KT 9999 BKN030/// BKN034/// 12/06 Q0994 SW (220°) 26.5mph 39.1mph 12°C 6°C
16/03/19 14:50 EGYM 161450Z AUTO 22025KT 9999 OVC030/// 12/06 Q0995 SW (220°) 28.8mph 12°C 6°C
16/03/19 13:50 EGYM 161350Z AUTO 22022G33KT 9999 BKN032/// 12/07 Q0996 SW (220°) 25.3mph 38.0mph 12°C 7°C
16/03/19 12:50 EGYM 161250Z AUTO 22025G35KT 9999 SCT031/// BKN038/// 12/07 Q0997 SW (220°) 28.8mph 40.3mph 12°C 7°C
16/03/19 11:50 EGYM 161150Z AUTO 23030G42KT 9999 BKN029/// 12/07 Q0998 SW (230°) 34.5mph 48.3mph 12°C 7°C
16/03/19 10:50 EGYM 161050Z AUTO 23030G40KT 9999 BKN026/// BKN034/// 11/07 Q0998 SW (230°) 34.5mph 46.0mph 11°C 7°C
16/03/19 09:50 EGYM 160950Z AUTO 23030G42KT 9999 OVC021/// 11/08 Q0999 SW (230°) 34.5mph 48.3mph 11°C 8°C
16/03/19 08:50 EGYM 160850Z AUTO 22023G36KT 9999 BKN021/// SCT032/// 11/08 Q0999 SW (220°) 26.5mph 41.4mph 11°C 8°C
16/03/19 07:50 EGYM 160750Z AUTO 22022G32KT 9999 BKN017/// BKN110/// 11/08 Q1000 SW (220°) 25.3mph 36.8mph 11°C 8°C
16/03/19 06:50 EGYM 160650Z AUTO 22023KT 9999 FEW013/// BKN090/// 10/09 Q1001 SW (220°) 26.5mph 10°C 9°C
16/03/19 05:50 EGYM 160550Z AUTO 22021KT 9999 FEW013/// SCT060/// BKN090/// 10/09 Q1002 RERA SW (220°) 24.2mph 10°C 9°C
16/03/19 04:50 EGYM 160450Z AUTO 22019KT 9999 -DZ FEW012/// BKN047/// 10/09 Q1002 -DZ SW (220°) 21.9mph 10°C 9°C
16/03/19 03:50 EGYM 160350Z AUTO 21013KT 4200 -DZ BKN003/// BKN012/// 09/09 Q1003 -DZ SSW (210°) 15.0mph 9°C 9°C
16/03/19 02:50 EGYM 160250Z AUTO 17007KT 3100 RA FEW003/// BKN006/// 08/07 Q1004 RA S (170°) 8.1mph 8°C 7°C
16/03/19 01:50 EGYM 160150Z AUTO 22008KT 9000 RA FEW016/// BKN042/// 08/07 Q1006 RA SW (220°) 9.2mph 8°C 7°C
16/03/19 00:50 EGYM 160050Z AUTO 22008KT 9999 -RA FEW050/// OVC070/// 08/06 Q1007 -RA SW (220°) 9.2mph 8°C 6°C
15/03/19 23:50 EGYM 152350Z AUTO 22006KT 9999 OVC070/// 08/05 Q1008 SW (220°) 6.9mph 8°C 5°C
15/03/19 22:50 EGYM 152250Z AUTO 21004KT 9999 OVC080/// 08/04 Q1008 SSW (210°) 4.6mph 8°C 4°C
15/03/19 21:50 EGYM 152150Z AUTO 22004KT 9999 FEW041/// BKN100/// 07/04 Q1009 SW (220°) 4.6mph 7°C 4°C
15/03/19 20:50 EGYM 152050Z AUTO 27006KT 9999 FEW050/// BKN120/// BKN170/// 08/04 Q1008 W (270°) 6.9mph 8°C 4°C
15/03/19 19:50 EGYM 151950Z AUTO 27006KT 9999 SCT042/// BKN180/// 09/04 Q1008 W (270°) 6.9mph 9°C 4°C
15/03/19 18:50 EGYM 151850Z AUTO 28011KT 9999 FEW050/// BKN150/// 09/03 Q1007 W (280°) 12.7mph 9°C 3°C
15/03/19 17:50 EGYM 151750Z AUTO 29016KT 9999 FEW042/// BKN050/// 10/03 Q1006 WNW (290°) 18.4mph 10°C 3°C
15/03/19 16:50 EGYM 151650Z AUTO 28014KT 9999 BKN039/// 11/04 Q1005 W (280°) 16.1mph 11°C 4°C
15/03/19 15:50 EGYM 151550Z AUTO 28018KT 9999 SCT050/// 12/03 Q1004 W (280°) 20.7mph 12°C 3°C
15/03/19 14:50 EGYM 151450Z 29023KT 9999 SCT035 BKN200 13/04 Q1004 BLU NOSIG WNW (290°) 26.5mph 13°C 4°C
15/03/19 13:50 EGYM 151350Z 29021KT 9999 SCT035 BKN200 13/05 Q1003 BLU NOSIG WNW (290°) 24.2mph 13°C 5°C
15/03/19 12:50 EGYM 151250Z 29021G31KT 9999 SCT040 SCT200 13/06 Q1003 BLU NOSIG WNW (290°) 24.2mph 35.7mph 13°C 6°C
15/03/19 11:50 EGYM 151150Z 28023KT 9999 SCT034 BKN200 14/07 Q1002 BLU NOSIG W (280°) 26.5mph 14°C 7°C
15/03/19 10:50 EGYM 151050Z 27021KT 9999 FEW010 SCT030 BKN200 13/10 Q1001 BLU NOSIG W (270°) 24.2mph 13°C 10°C
15/03/19 10:21 EGYM 151021Z 28018KT 9999 FEW012 BKN040 12/10 Q1001 BLU W (280°) 20.7mph 12°C 10°C
15/03/19 09:50 EGYM 150950Z 28016KT 7000 -SHRA FEW012 SCT024 BKN035 12/11 Q1001 WHT BECMG 9999 NSW FEW012 SCT028 BLU -SHRA W (280°) 18.4mph 12°C 11°C
15/03/19 09:18 EGYM 150918Z 26019KT 5000 SHRA FEW012 BKN023 12/10 Q1001 WHT BECMG 9999 NSW FEW012 SCT028 BLU SHRA W (260°) 21.9mph 12°C 10°C
15/03/19 09:18 EGYM 150918Z 26019KT 5000 -SHRA FEW012 BKN023 12/10 Q1001 WHT BECMG 9999 NSW FEW012 SCT028 BLU -SHRA W (260°) 21.9mph 12°C 10°C
15/03/19 07:50 EGYM 150750Z 24021KT 9999 SCT028 BKN036 12/10 Q1000 BLU NOSIG WSW (240°) 24.2mph 12°C 10°C
15/03/19 06:50 EGYM 150650Z 24017KT 9999 FEW027 BKN035 BKN050 12/09 Q0999 BLU NOSIG WSW (240°) 19.6mph 12°C 9°C
15/03/19 05:50 EGYM 150550Z 23013KT 9999 FEW024 BKN035 BKN050 11/10 Q1000 BLU SW (230°) 15.0mph 11°C 10°C
15/03/19 04:50 EGYM 150450Z 23014KT 9999 FEW024 OVC030 10/09 Q1000 RERA BLU SW (230°) 16.1mph 10°C 9°C
15/03/19 03:50 EGYM 150350Z 22014KT 9999 -RA FEW005 OVC022 09/09 Q1000 WHT -RA SW (220°) 16.1mph 9°C 9°C
15/03/19 02:50 EGYM 150250Z 20010KT 4000 -RADZ OVC004 08/08 Q1001 YLO2 -RA -DZ SSW (200°) 11.5mph 8°C 8°C
15/03/19 01:50 EGYM 150150Z 22010KT 5000 -RA FEW015 OVC025 07/06 Q1003 WHT -RA SW (220°) 11.5mph 7°C 6°C
15/03/19 00:50 EGYM 150050Z 21007KT 8000 RA OVC035 07/06 Q1004 BLU RA SSW (210°) 8.1mph 7°C 6°C
14/03/19 23:50 EGYM 142350Z 23010KT 9999 -RA SCT040 OVC050 08/05 Q1005 BLU -RA SW (230°) 11.5mph 8°C 5°C
14/03/19 22:50 EGYM 142250Z 24010KT CAVOK 08/04 Q1005 BLU WSW (240°) 11.5mph 8°C 4°C
14/03/19 21:50 EGYM 142150Z 25011KT CAVOK 08/04 Q1005 BLU WSW (250°) 12.7mph 8°C 4°C
14/03/19 20:50 EGYM 142050Z 26012KT CAVOK 08/03 Q1005 BLU W (260°) 13.8mph 8°C 3°C
14/03/19 19:50 EGYM 141950Z 27013KT CAVOK 09/02 Q1005 BLU NOSIG W (270°) 15.0mph 9°C 2°C
14/03/19 18:50 EGYM 141850Z 28018KT CAVOK 09/02 Q1004 BLU NOSIG W (280°) 20.7mph 9°C 2°C
14/03/19 17:50 EGYM 141750Z 28013KT 9999 FEW035 SCT250 09/02 Q1004 BLU NOSIG W (280°) 15.0mph 9°C 2°C
14/03/19 16:50 EGYM 141650Z 29021G32KT 9999 SCT035 SCT250 11/02 Q1002 BLU NOSIG WNW (290°) 24.2mph 36.8mph 11°C 2°C
14/03/19 15:50 EGYM 141550Z 29024KT 9999 FEW035 12/02 Q1001 BLU NOSIG WNW (290°) 27.6mph 12°C 2°C
14/03/19 14:50 EGYM 141450Z 29024G36KT 9999 SCT035 13/02 Q1000 BLU NOSIG WNW (290°) 27.6mph 41.4mph 13°C 2°C
14/03/19 13:50 EGYM 141350Z 29028G39KT 9999 SCT030 13/03 Q0999 BLU NOSIG WNW (290°) 32.2mph 44.9mph 13°C 3°C
14/03/19 12:50 EGYM 141250Z 29021KT 9999 FEW030 12/05 Q0999 BLU NOSIG WNW (290°) 24.2mph 12°C 5°C
14/03/19 11:50 EGYM 141150Z 29021KT 9999 FEW025 SCT035 12/04 Q0998 BLU NOSIG WNW (290°) 24.2mph 12°C 4°C
14/03/19 10:50 EGYM 141050Z 29023G34KT 9999 FEW020 12/05 Q0997 BLU NOSIG WNW (290°) 26.5mph 39.1mph 12°C 5°C
14/03/19 09:50 EGYM 140950Z 29021KT 9999 FEW020 12/08 Q0996 BLU TEMPO SCT020 WHT WNW (290°) 24.2mph 12°C 8°C
14/03/19 08:50 EGYM 140850Z 25024KT 9999 FEW012 BKN020 BKN050 11/08 Q0995 WHT NOSIG WSW (250°) 27.6mph 11°C 8°C
14/03/19 07:50 EGYM 140750Z 24023KT 9999 FEW012 SCT015 BKN050 09/07 Q0996 WHT WSW (240°) 26.5mph 9°C 7°C
14/03/19 06:50 EGYM 140650Z 23018KT 9999 FEW012 BKN015 BKN050 08/06 Q0997 WHT SW (230°) 20.7mph 8°C 6°C
14/03/19 05:50 EGYM 140550Z 23021KT 9999 BKN020 BKN080 07/05 Q0999 WHT SW (230°) 24.2mph 7°C 5°C
14/03/19 04:50 EGYM 140450Z 23019KT 9999 OVC040 07/05 Q1001 RERA BLU SW (230°) 21.9mph 7°C 5°C
14/03/19 03:50 EGYM 140350Z 23017KT 9999 -RA OVC041 06/05 Q1003 BLU -RA SW (230°) 19.6mph 6°C 5°C
14/03/19 02:50 EGYM 140250Z 23016KT 9999 -RA OVC050 07/04 Q1005 BLU -RA SW (230°) 18.4mph 7°C 4°C
14/03/19 01:50 EGYM 140150Z 23014KT CAVOK 07/04 Q1006 REDZ BLU SW (230°) 16.1mph 7°C 4°C
14/03/19 00:50 EGYM 140050Z 24013KT 9999 FEW035 BKN070 07/04 Q1007 BLU WSW (240°) 15.0mph 7°C 4°C
13/03/19 23:50 EGYM 132350Z 23012KT 9999 BKN029 07/03 Q1008 BLU SW (230°) 13.8mph 7°C 3°C